Bella Vista, Argentina
Current Conditions -  °F | °C
As of 6:00 AM on Wednesday 22 Oct 2014 (Local Time) from SANT Reporting Station
Clear Clear  
Wind Chill: 70°   Ceiling: Unl
Heat Index: 70°   Visibility: 5mi
Dew Point: 57°   Wind: 5mph
Humidity: 64%   Direction: 360°N
Pressure: 29.88"   Gusts: NA
Location:  27.03°S, 65.3°W
Report Text: SANT 220900Z 36004KT 8000 NSC 21/14 Q1012
Loading
Personal Weather Stations






























Interactive Weather Map
Tropical Storm Tracking
New forecast layout! Learn more

10-Day Weather Forecast

Advertisements
Track Severe Weather on mobile